Time;durP1;ratioP1;P1;durP2;ratioP2;P2;SDS_P1;SDS_P2;PMS_P1;PMS_P2;Temp;Humidity;BMP_temperature;BMP_pressure;BME280_temperature;BME280_humidity;BME280_pressure;Samples;Min_cycle;Max_cycle;Signal;HPM_P1;HPM_P2
2023/08/10 00:01:26;;;;;;;8.32;3.00;;;12.50;88.90;;;;;;5072923;28;20025;-48
2023/08/10 00:03:53;;;;;;;8.75;3.72;;;12.40;88.90;;;;;;5068080;28;20082;-49
2023/08/10 00:06:21;;;;;;;8.70;2.88;;;12.40;88.90;;;;;;5066680;28;20040;-48
2023/08/10 00:08:47;;;;;;;9.35;3.42;;;12.40;88.90;;;;;;5069027;28;20445;-47
2023/08/10 00:11:14;;;;;;;7.97;3.28;;;12.40;88.90;;;;;;5068266;28;20039;-49
2023/08/10 00:13:43;;;;;;;7.00;2.33;;;12.40;89.10;;;;;;5073626;28;20099;-47
2023/08/10 00:16:10;;;;;;;9.23;2.97;;;12.40;89.10;;;;;;5071883;28;20040;-47
2023/08/10 00:18:39;;;;;;;13.00;3.50;;;12.40;89.10;;;;;;5071529;28;20452;-47
2023/08/10 00:21:05;;;;;;;7.07;3.13;;;12.40;89.20;;;;;;5060110;28;20044;-48
2023/08/10 00:23:32;;;;;;;5.82;3.08;;;12.40;89.30;;;;;;5057499;28;20021;-48
2023/08/10 00:25:58;;;;;;;8.25;3.60;;;12.40;89.40;;;;;;5060881;28;20031;-49
2023/08/10 00:28:24;;;;;;;5.68;2.58;;;12.40;89.50;;;;;;5072293;28;20036;-47
2023/08/10 00:30:51;;;;;;;8.65;2.90;;;12.40;89.60;;;;;;5071287;28;20129;-47
2023/08/10 00:33:21;;;;;;;4.63;2.33;;;12.50;89.60;;;;;;5072825;28;20020;-47
2023/08/10 00:35:48;;;;;;;7.15;2.83;;;12.50;89.60;;;;;;5071378;28;20828;-48
2023/08/10 00:38:15;;;;;;;4.13;2.30;;;12.40;89.60;;;;;;5072042;28;20380;-47
2023/08/10 00:40:44;;;;;;;7.47;2.58;;;12.40;89.70;;;;;;5066380;28;20070;-48
2023/08/10 00:43:14;;;;;;;5.20;2.67;;;12.40;89.70;;;;;;5072263;28;20051;-47
2023/08/10 00:45:41;;;;;;;7.57;2.85;;;12.40;89.70;;;;;;5072246;28;20457;-47
2023/08/10 00:48:08;;;;;;;6.28;2.90;;;12.40;89.70;;;;;;5071361;28;20447;-48
2023/08/10 00:50:39;;;;;;;7.65;2.60;;;12.40;89.70;;;;;;5072476;28;20063;-47
2023/08/10 00:53:06;;;;;;;4.95;3.30;;;12.40;89.60;;;;;;5051540;28;20464;-47
2023/08/10 00:55:33;;;;;;;10.27;2.83;;;12.40;89.50;;;;;;5071666;28;20457;-48
2023/08/10 00:58:00;;;;;;;9.05;2.60;;;12.40;89.30;;;;;;5071264;28;20397;-48
2023/08/10 01:00:30;;;;;;;7.50;2.58;;;12.30;89.30;;;;;;5071640;28;20130;-48
2023/08/10 01:02:59;;;;;;;;;;;12.20;89.40;;;;;;5054304;28;20377;-47
2023/08/10 01:05:35;;;;;;;6.63;2.92;;;12.20;89.30;;;;;;5071257;28;20318;-47
2023/08/10 01:08:20;;;;;;;11.40;3.28;;;12.20;89.40;;;;;;5069531;28;20036;-47
2023/08/10 01:11:08;;;;;;;6.40;2.42;;;12.20;89.50;;;;;;5073269;28;20323;-48
2023/08/10 01:13:49;;;;;;;8.38;3.20;;;12.20;89.60;;;;;;5071219;28;20037;-48
2023/08/10 01:16:20;;;;;;;7.22;3.30;;;12.10;89.70;;;;;;5054008;28;20115;-47
2023/08/10 01:18:49;;;;;;;8.82;2.80;;;12.10;89.80;;;;;;5051399;28;20396;-47
2023/08/10 01:21:32;;;;;;;5.50;3.97;;;12.20;90.10;;;;;;5069231;28;20042;-47
2023/08/10 01:24:08;;;;;;;8.13;3.58;;;12.20;90.20;;;;;;5068766;28;20448;-47
2023/08/10 01:26:36;;;;;;;8.45;3.13;;;12.20;90.30;;;;;;5070466;28;20032;-48
2023/08/10 01:29:03;;;;;;;8.05;2.70;;;12.20;90.40;;;;;;5072600;28;20039;-48
2023/08/10 01:31:30;;;;;;;8.75;2.40;;;12.30;90.30;;;;;;5065978;28;20025;-47
2023/08/10 01:33:57;;;;;;;6.13;2.67;;;12.30;90.10;;;;;;5070684;28;20052;-49
2023/08/10 01:36:24;;;;;;;9.70;3.13;;;12.20;89.90;;;;;;5072081;28;20045;-50
2023/08/10 01:38:50;;;;;;;9.88;3.45;;;12.30;90.10;;;;;;5067170;28;20511;-47
2023/08/10 01:41:16;;;;;;;6.75;3.63;;;12.30;90.20;;;;;;5053457;28;20033;-47
2023/08/10 01:43:43;;;;;;;9.63;2.67;;;12.30;90.20;;;;;;5071942;28;20028;-47
2023/08/10 01:46:18;;;;;;;9.55;3.13;;;12.30;90.00;;;;;;5069282;28;20036;-47
2023/08/10 01:48:47;;;;;;;7.13;2.97;;;12.30;89.90;;;;;;5070117;28;20021;-49
2023/08/10 01:51:16;;;;;;;8.27;2.67;;;12.20;89.70;;;;;;5072439;28;20017;-47
2023/08/10 01:53:45;;;;;;;5.57;2.97;;;12.10;89.70;;;;;;5068531;28;20064;-47
2023/08/10 01:56:14;;;;;;;5.57;2.33;;;12.10;89.70;;;;;;5071998;28;20037;-47
2023/08/10 01:58:40;;;;;;;5.45;2.70;;;12.00;89.70;;;;;;5070901;28;20052;-47
2023/08/10 02:01:09;;;;;;;8.32;2.90;;;12.00;89.60;;;;;;5052874;28;20064;-47
2023/08/10 02:03:39;;;;;;;6.45;3.35;;;12.00;89.70;;;;;;5072271;28;20361;-47
2023/08/10 02:06:06;;;;;;;9.85;2.55;;;11.90;89.50;;;;;;5067901;28;20032;-47
2023/08/10 02:08:33;;;;;;;8.45;3.00;;;11.90;89.50;;;;;;5070964;28;20028;-47
2023/08/10 02:11:00;;;;;;;10.80;2.88;;;11.80;89.60;;;;;;5053757;28;20372;-47
2023/08/10 02:13:29;;;;;;;6.15;2.70;;;11.80;89.80;;;;;;5052527;28;20020;-47
2023/08/10 02:15:59;;;;;;;9.18;2.53;;;11.80;89.80;;;;;;5062737;28;20060;-47
2023/08/10 02:18:25;;;;;;;6.60;2.63;;;11.70;89.80;;;;;;5055065;28;20037;-47
2023/08/10 02:20:52;;;;;;;9.52;3.50;;;11.70;89.80;;;;;;5064001;28;20032;-48
2023/08/10 02:23:20;;;;;;;8.85;3.30;;;11.70;89.80;;;;;;5067194;28;20052;-47
2023/08/10 02:25:47;;;;;;;8.48;2.88;;;11.60;89.80;;;;;;5044061;28;20062;-47
2023/08/10 02:28:12;;;;;;;6.82;3.03;;;11.60;89.90;;;;;;5075791;28;20024;-46
2023/08/10 02:30:41;;;;;;;7.10;2.63;;;11.60;90.00;;;;;;5074437;28;20770;-49
2023/08/10 02:33:08;;;;;;;5.75;2.65;;;11.50;89.90;;;;;;5075096;28;20045;-46
2023/08/10 02:35:33;;;;;;;7.75;2.50;;;11.50;90.00;;;;;;5074355;28;20115;-47
2023/08/10 02:38:00;;;;;;;5.20;2.70;;;11.50;90.10;;;;;;5068182;28;20112;-47
2023/08/10 02:40:27;;;;;;;9.20;2.97;;;11.50;90.00;;;;;;5049963;28;20048;-47
2023/08/10 02:42:54;;;;;;;9.15;2.60;;;11.50;90.10;;;;;;5064176;28;20025;-47
2023/08/10 02:45:20;;;;;;;5.15;3.38;;;11.40;90.00;;;;;;5063987;28;20501;-46
2023/08/10 02:47:47;;;;;;;8.77;2.58;;;11.40;90.10;;;;;;5064439;28;20032;-46
2023/08/10 02:50:14;;;;;;;17.08;2.95;;;11.50;90.00;;;;;;5075615;28;20424;-47
2023/08/10 02:52:43;;;;;;;7.80;3.42;;;11.40;90.00;;;;;;5066806;28;20021;-46
2023/08/10 02:55:10;;;;;;;18.40;4.50;;;11.40;89.90;;;;;;5045617;28;20028;-46
2023/08/10 02:57:39;;;;;;;9.38;2.63;;;11.40;90.00;;;;;;5063057;28;20643;-46
2023/08/10 03:00:08;;;;;;;8.17;3.10;;;11.40;90.20;;;;;;5042115;28;20112;-46
2023/08/10 03:02:35;;;;;;;5.35;2.55;;;11.40;90.30;;;;;;5057468;28;20278;-46
2023/08/10 03:05:01;;;;;;;7.68;3.50;;;11.40;90.30;;;;;;5074739;28;20020;-46
2023/08/10 03:07:28;;;;;;;11.75;3.63;;;11.40;90.20;;;;;;5056412;28;20020;-46
2023/08/10 03:09:55;;;;;;;8.57;2.58;;;11.30;90.30;;;;;;5053906;28;20092;-46
2023/08/10 03:12:22;;;;;;;12.10;3.47;;;11.30;90.40;;;;;;5037484;28;20044;-48
2023/08/10 03:14:49;;;;;;;6.68;2.90;;;11.30;90.30;;;;;;5058341;28;20062;-46
2023/08/10 03:17:16;;;;;;;8.18;2.90;;;11.30;90.40;;;;;;5061253;28;20071;-46
2023/08/10 03:19:44;;;;;;;7.20;2.97;;;11.20;90.40;;;;;;5038541;28;20049;-46
2023/08/10 03:22:12;;;;;;;4.13;2.88;;;11.20;90.60;;;;;;5074332;28;20089;-47
2023/08/10 03:24:42;;;;;;;6.20;2.53;;;11.20;90.60;;;;;;5071090;28;20345;-46
2023/08/10 03:27:11;;;;;;;6.80;2.88;;;11.20;90.60;;;;;;5073747;28;20315;-46
2023/08/10 03:29:38;;;;;;;5.43;2.75;;;11.20;90.60;;;;;;5072786;28;20633;-46
2023/08/10 03:32:04;;;;;;;9.15;2.97;;;11.20;90.60;;;;;;5073378;28;20028;-45
2023/08/10 03:34:31;;;;;;;7.15;3.25;;;11.20;90.40;;;;;;5074795;28;20081;-46
2023/08/10 03:36:58;;;;;;;12.88;3.35;;;11.20;90.40;;;;;;5053356;28;20045;-46
2023/08/10 03:39:23;;;;;;;10.48;3.00;;;11.20;90.40;;;;;;5063892;28;20512;-46
2023/08/10 03:41:53;;;;;;;8.55;3.17;;;11.20;90.40;;;;;;5074415;28;20216;-46
2023/08/10 03:44:20;;;;;;;5.75;2.25;;;11.10;90.40;;;;;;5074536;28;20039;-46
2023/08/10 03:46:53;;;;;;;5.38;2.58;;;11.10;90.50;;;;;;5063985;28;20112;-46
2023/08/10 03:49:22;;;;;;;8.35;3.13;;;11.10;90.60;;;;;;5074648;28;20022;-46
2023/08/10 03:51:53;;;;;;;4.40;2.83;;;11.10;90.50;;;;;;5056747;28;20024;-44
2023/08/10 03:54:20;;;;;;;7.80;3.40;;;11.10;90.60;;;;;;5066192;28;20028;-46
2023/08/10 03:56:47;;;;;;;3.92;2.53;;;11.10;90.40;;;;;;5074205;28;20111;-46
2023/08/10 03:59:14;;;;;;;12.70;2.95;;;11.10;90.40;;;;;;5073091;28;20102;-46
2023/08/10 04:01:44;;;;;;;6.63;2.33;;;11.10;90.40;;;;;;5047438;28;20029;-46
2023/08/10 04:04:11;;;;;;;9.05;2.92;;;11.00;90.50;;;;;;5064989;28;20040;-45
2023/08/10 04:06:38;;;;;;;8.95;3.20;;;11.00;90.50;;;;;;5073287;28;20075;-47
2023/08/10 04:09:06;;;;;;;6.93;2.95;;;11.00;90.50;;;;;;5071762;28;20025;-46
2023/08/10 04:11:34;;;;;;;8.65;3.67;;;11.00;90.60;;;;;;5055974;28;20025;-45
2023/08/10 04:13:59;;;;;;;10.25;3.58;;;11.00;90.60;;;;;;5065381;28;20099;-46
2023/08/10 04:16:26;;;;;;;6.97;3.78;;;11.00;90.70;;;;;;5063992;28;20162;-45
2023/08/10 04:18:52;;;;;;;8.38;3.35;;;11.00;90.60;;;;;;5073661;28;20035;-45
2023/08/10 04:21:19;;;;;;;8.80;2.30;;;11.00;90.80;;;;;;5073067;28;20024;-45
2023/08/10 04:23:46;;;;;;;5.78;2.70;;;11.00;90.80;;;;;;5071288;28;20340;-44
2023/08/10 04:26:13;;;;;;;6.40;2.65;;;11.00;90.70;;;;;;5053860;28;20032;-45
2023/08/10 04:28:42;;;;;;;9.48;3.05;;;11.00;90.90;;;;;;5065631;28;20020;-46
2023/08/10 04:31:09;;;;;;;7.77;2.83;;;11.00;90.80;;;;;;5046734;28;20107;-45
2023/08/10 04:33:37;;;;;;;9.30;2.65;;;11.10;90.90;;;;;;5054062;28;20282;-45
2023/08/10 04:36:04;;;;;;;9.35;3.83;;;11.10;90.70;;;;;;5073607;28;20048;-45
2023/08/10 04:38:30;;;;;;;12.02;2.50;;;11.20;90.80;;;;;;5070870;28;20021;-45
2023/08/10 04:40:56;;;;;;;7.47;2.88;;;11.20;90.70;;;;;;5054983;28;20047;-45
2023/08/10 04:43:22;;;;;;;7.93;3.22;;;11.20;90.70;;;;;;5054933;28;20029;-45
2023/08/10 04:45:49;;;;;;;8.48;3.97;;;11.20;90.70;;;;;;5071918;28;20035;-45
2023/08/10 04:48:16;;;;;;;6.72;2.80;;;11.30;90.70;;;;;;5055110;28;20047;-45
2023/08/10 04:50:43;;;;;;;5.15;2.50;;;11.40;90.50;;;;;;5072784;28;20744;-45
2023/08/10 04:53:09;;;;;;;4.22;2.00;;;11.40;90.30;;;;;;5070673;28;20461;-45
2023/08/10 04:55:38;;;;;;;9.48;3.28;;;11.40;90.20;;;;;;5064068;28;20048;-45
2023/08/10 04:58:05;;;;;;;6.75;2.72;;;11.40;90.10;;;;;;5071043;28;20070;-46
2023/08/10 05:00:34;;;;;;;6.22;2.45;;;11.40;90.00;;;;;;5071775;28;20036;-45
2023/08/10 05:03:01;;;;;;;9.38;2.47;;;11.40;90.10;;;;;;5071401;28;20036;-45
2023/08/10 05:05:28;;;;;;;6.93;2.25;;;11.40;90.10;;;;;;5052988;28;20029;-44
2023/08/10 05:07:55;;;;;;;5.05;2.53;;;11.50;90.10;;;;;;5070712;28;20020;-45
2023/08/10 05:10:21;;;;;;;5.65;2.42;;;11.60;90.20;;;;;;5068924;28;20030;-46
2023/08/10 05:12:48;;;;;;;7.47;2.67;;;11.60;90.30;;;;;;5054792;28;20043;-45
2023/08/10 05:15:17;;;;;;;6.57;2.65;;;11.70;90.40;;;;;;5063785;28;20060;-46
2023/08/10 05:17:44;;;;;;;6.05;2.58;;;11.80;90.30;;;;;;5060886;28;20410;-46
2023/08/10 05:20:11;;;;;;;4.68;1.83;;;11.90;90.30;;;;;;5062379;28;20051;-46
2023/08/10 05:22:46;;;;;;;5.50;2.30;;;12.00;90.40;;;;;;5065842;28;20107;-47
2023/08/10 05:25:14;;;;;;;7.13;2.53;;;12.10;90.40;;;;;;5051773;28;20029;-46
2023/08/10 05:27:41;;;;;;;8.27;2.47;;;12.20;90.40;;;;;;5070057;28;20021;-46
2023/08/10 05:30:08;;;;;;;4.18;2.00;;;12.30;90.30;;;;;;5058932;28;20025;-48
2023/08/10 05:32:36;;;;;;;7.00;2.83;;;12.40;90.20;;;;;;5053131;28;20024;-47
2023/08/10 05:35:04;;;;;;;6.93;2.38;;;12.40;90.00;;;;;;5070251;28;20388;-46
2023/08/10 05:37:32;;;;;;;4.97;1.80;;;12.40;89.60;;;;;;5070086;28;20046;-47
2023/08/10 05:40:00;;;;;;;4.00;1.80;;;12.40;89.40;;;;;;5069574;28;20028;-46
2023/08/10 05:42:30;;;;;;;9.68;2.47;;;12.40;89.10;;;;;;5071166;28;20056;-46
2023/08/10 05:45:00;;;;;;;5.55;2.47;;;12.50;88.80;;;;;;5071445;28;20449;-46
2023/08/10 05:47:26;;;;;;;5.32;1.70;;;12.40;88.90;;;;;;5049768;28;20339;-46
2023/08/10 05:49:56;;;;;;;4.13;1.73;;;12.50;88.90;;;;;;5071308;28;20453;-46
2023/08/10 05:52:25;;;;;;;4.45;2.28;;;12.60;88.80;;;;;;5055623;28;20037;-46
2023/08/10 05:54:51;;;;;;;5.30;2.17;;;12.70;88.90;;;;;;5069770;28;20353;-46
2023/08/10 05:57:19;;;;;;;5.32;2.13;;;12.80;88.90;;;;;;5072214;28;20024;-46
2023/08/10 05:59:46;;;;;;;5.70;2.33;;;12.90;88.50;;;;;;5071178;28;20099;-46
2023/08/10 06:02:12;;;;;;;5.22;2.28;;;13.00;88.50;;;;;;5071303;28;20020;-46
2023/08/10 06:04:41;;;;;;;4.20;1.52;;;13.10;88.60;;;;;;5054467;28;20025;-47
2023/08/10 06:07:07;;;;;;;3.70;1.90;;;13.20;88.60;;;;;;5046754;28;20036;-47
2023/08/10 06:09:33;;;;;;;6.82;2.00;;;13.20;88.50;;;;;;5059328;28;20036;-49
2023/08/10 06:12:01;;;;;;;6.72;2.95;;;13.30;88.50;;;;;;5045306;28;20063;-49
2023/08/10 06:14:28;;;;;;;4.53;1.80;;;13.40;88.30;;;;;;5060451;28;20029;-47
2023/08/10 06:16:55;;;;;;;5.28;1.50;;;13.40;87.80;;;;;;5061759;28;20059;-50
2023/08/10 06:19:21;;;;;;;5.38;1.90;;;13.40;87.70;;;;;;5059856;28;20393;-47
2023/08/10 06:21:48;;;;;;;6.18;2.53;;;13.40;87.70;;;;;;5063695;28;20106;-47
2023/08/10 06:24:16;;;;;;;6.78;1.92;;;13.50;87.80;;;;;;5071108;28;20025;-47
2023/08/10 06:26:45;;;;;;;5.30;1.88;;;13.50;88.00;;;;;;5062512;28;20033;-49
2023/08/10 06:29:11;;;;;;;;;;;13.60;88.10;;;;;;5061040;28;20100;-47
2023/08/10 06:31:37;;;;;;;5.93;1.90;;;13.60;88.00;;;;;;5055947;28;20011;-48
2023/08/10 06:34:04;;;;;;;6.55;2.03;;;13.60;87.90;;;;;;5054501;28;20037;-47
2023/08/10 06:36:31;;;;;;;7.78;2.50;;;13.70;87.80;;;;;;5067550;28;20048;-47
2023/08/10 06:38:59;;;;;;;4.45;1.48;;;13.70;87.80;;;;;;5062089;28;20072;-47
2023/08/10 06:41:28;;;;;;;7.82;1.90;;;13.80;87.80;;;;;;5063593;28;20610;-47
2023/08/10 06:43:55;;;;;;;9.80;1.77;;;13.90;88.00;;;;;;5070888;28;20116;-47
2023/08/10 06:46:22;;;;;;;5.63;1.70;;;14.00;88.10;;;;;;5057894;28;20041;-47
2023/08/10 06:48:49;;;;;;;5.72;1.92;;;14.20;87.90;;;;;;5062211;28;20021;-47
2023/08/10 06:51:16;;;;;;;12.02;1.85;;;14.40;87.90;;;;;;5070203;28;20039;-48
2023/08/10 06:53:49;;;;;;;7.45;1.80;;;14.40;85.60;;;;;;5043674;28;20077;-48
2023/08/10 06:56:16;;;;;;;7.20;1.63;;;14.70;85.10;;;;;;5060785;28;20033;-48
2023/08/10 06:58:46;;;;;;;8.25;2.17;;;14.90;84.70;;;;;;5062493;28;20453;-48
2023/08/10 07:01:13;;;;;;;10.48;1.63;;;14.90;83.60;;;;;;5060820;28;20044;-47
2023/08/10 07:03:40;;;;;;;6.25;1.67;;;15.20;84.20;;;;;;5061148;28;20633;-48
2023/08/10 07:06:09;;;;;;;5.68;1.55;;;15.30;83.80;;;;;;5037845;28;20351;-48
2023/08/10 07:08:36;;;;;;;5.95;1.85;;;15.40;83.70;;;;;;5048721;28;20405;-48
2023/08/10 07:11:03;;;;;;;4.20;1.65;;;15.50;83.40;;;;;;5065850;28;20085;-48
2023/08/10 07:13:30;;;;;;;3.65;1.23;;;15.70;83.70;;;;;;5068407;28;20483;-48
2023/08/10 07:15:57;;;;;;;9.40;2.55;;;15.70;83.80;;;;;;5071030;28;20720;-48
2023/08/10 07:18:22;;;;;;;12.60;2.00;;;15.70;82.80;;;;;;5073944;28;20036;-48
2023/08/10 07:20:49;;;;;;;6.07;1.30;;;15.80;82.90;;;;;;5073839;28;20036;-49
2023/08/10 07:23:17;;;;;;;8.88;1.83;;;15.80;82.90;;;;;;5071898;28;20025;-50
2023/08/10 07:25:47;;;;;;;5.63;2.00;;;15.80;81.80;;;;;;5072793;28;20782;-48
2023/08/10 07:28:14;;;;;;;3.88;2.13;;;15.90;82.20;;;;;;5072064;28;20028;-50
2023/08/10 07:30:40;;;;;;;5.85;1.52;;;15.90;81.70;;;;;;5068660;28;20167;-49
2023/08/10 07:33:07;;;;;;;7.35;2.13;;;15.90;79.90;;;;;;5052370;28;20083;-50
2023/08/10 07:35:33;;;;;;;10.80;1.98;;;16.30;80.80;;;;;;5060365;28;20029;-50
2023/08/10 07:38:00;;;;;;;6.53;1.80;;;16.40;79.70;;;;;;5065580;28;20039;-52
2023/08/10 07:40:27;;;;;;;6.90;1.65;;;16.70;77.10;;;;;;5059681;28;20036;-51
2023/08/10 07:42:54;;;;;;;9.38;1.50;;;17.20;77.30;;;;;;5059919;28;20039;-49
2023/08/10 07:45:21;;;;;;;6.30;1.50;;;17.40;73.40;;;;;;5047216;28;20122;-50
2023/08/10 07:47:48;;;;;;;11.85;2.10;;;17.90;75.10;;;;;;5064170;28;20116;-53
2023/08/10 07:50:15;;;;;;;7.03;1.95;;;18.10;73.00;;;;;;5064884;28;20025;-52
2023/08/10 07:52:42;;;;;;;4.75;1.55;;;18.40;71.90;;;;;;5063191;28;20497;-50
2023/08/10 07:55:10;;;;;;;9.13;2.10;;;18.50;69.40;;;;;;5066478;28;20025;-52
2023/08/10 07:57:36;;;;;;;5.85;1.27;;;18.60;69.20;;;;;;5059790;28;20346;-49
2023/08/10 08:00:05;;;;;;;7.05;1.55;;;19.00;68.00;;;;;;5051607;28;20094;-51
2023/08/10 08:02:33;;;;;;;4.57;1.33;;;19.10;66.90;;;;;;5059174;28;20449;-54
2023/08/10 08:05:00;;;;;;;6.38;1.33;;;18.60;65.90;;;;;;5046894;28;20025;-51
2023/08/10 08:07:30;;;;;;;4.80;1.63;;;18.10;67.90;;;;;;5045549;28;20037;-49
2023/08/10 08:10:00;;;;;;;6.78;1.48;;;17.90;68.50;;;;;;5071452;28;20116;-50
2023/08/10 08:12:27;;;;;;;7.13;1.83;;;17.90;70.10;;;;;;5050836;28;20036;-51
2023/08/10 08:14:55;;;;;;;10.55;2.30;;;18.40;70.10;;;;;;5040495;28;20114;-49
2023/08/10 08:17:22;;;;;;;6.88;1.35;;;18.90;67.70;;;;;;5068926;28;20445;-53
2023/08/10 08:19:55;;;;;;;4.35;1.52;;;18.90;64.60;;;;;;5062663;28;20048;-54
2023/08/10 08:22:23;;;;;;;4.72;1.65;;;18.90;63.70;;;;;;5060529;28;20044;-52
2023/08/10 08:24:53;;;;;;;5.38;1.55;;;18.80;65.60;;;;;;5047686;28;20085;-53
2023/08/10 08:27:20;;;;;;;6.13;1.85;;;19.10;64.70;;;;;;5043961;28;20392;-50
2023/08/10 08:29:49;;;;;;;6.07;1.77;;;19.50;64.60;;;;;;5058818;28;20021;-52
2023/08/10 08:32:16;;;;;;;3.95;1.42;;;19.50;63.20;;;;;;5059449;28;20090;-50
2023/08/10 08:34:43;;;;;;;4.88;1.65;;;19.30;62.50;;;;;;5060830;28;20374;-50
2023/08/10 08:37:10;;;;;;;4.82;1.48;;;19.00;63.90;;;;;;5068986;28;20056;-50
2023/08/10 08:39:37;;;;;;;6.97;1.33;;;19.30;66.00;;;;;;5069994;28;20405;-52
2023/08/10 08:42:04;;;;;;;13.82;1.88;;;19.40;63.00;;;;;;5063013;28;20135;-53
2023/08/10 08:44:35;;;;;;;6.95;1.83;;;19.60;62.50;;;;;;5067403;28;20528;-52
2023/08/10 08:47:02;;;;;;;7.65;1.88;;;20.10;62.00;;;;;;5052645;28;20032;-50
2023/08/10 08:49:29;;;;;;;4.30;1.42;;;20.20;58.40;;;;;;5066836;28;20349;-50
2023/08/10 08:51:56;;;;;;;5.22;1.23;;;20.60;61.70;;;;;;5069072;28;20029;-50
2023/08/10 08:54:24;;;;;;;6.07;1.60;;;20.90;58.30;;;;;;5057779;28;20070;-52
2023/08/10 08:56:51;;;;;;;6.70;1.67;;;21.10;56.10;;;;;;5063674;28;20029;-50
2023/08/10 08:59:18;;;;;;;5.93;1.52;;;21.20;55.10;;;;;;5066127;28;20043;-51
2023/08/10 09:01:48;;;;;;;6.05;1.42;;;21.30;55.90;;;;;;5046523;28;20032;-52
2023/08/10 09:04:15;;;;;;;8.85;1.50;;;20.90;57.30;;;;;;5063480;28;20112;-53
2023/08/10 09:06:42;;;;;;;4.13;1.42;;;20.20;57.70;;;;;;5050774;28;20028;-54
2023/08/10 09:09:09;;;;;;;8.30;2.42;;;19.70;58.70;;;;;;5066237;28;20540;-55
2023/08/10 09:11:38;;;;;;;4.78;1.15;;;19.60;63.10;;;;;;5059957;28;20021;-53
2023/08/10 09:14:07;;;;;;;5.05;1.45;;;20.30;62.00;;;;;;5061825;28;20330;-54
2023/08/10 09:16:36;;;;;;;6.22;1.92;;;20.80;60.30;;;;;;5061997;28;20029;-51
2023/08/10 09:19:09;;;;;;;;;;;21.20;58.10;;;;;;5060881;28;20016;-50
2023/08/10 09:21:36;;;;;;;4.68;1.45;;;21.40;56.30;;;;;;5067098;28;19915;-52
2023/08/10 09:24:02;;;;;;;7.25;2.08;;;20.90;55.00;;;;;;5048725;28;20663;-51
2023/08/10 09:26:29;;;;;;;7.60;1.45;;;20.70;58.50;;;;;;5058972;28;20115;-50
2023/08/10 09:28:55;;;;;;;7.50;1.38;;;20.30;58.00;;;;;;5072206;28;20036;-53
2023/08/10 09:31:27;;;;;;;7.57;1.38;;;20.10;62.70;;;;;;5065470;28;20117;-53
2023/08/10 09:33:55;;;;;;;7.85;1.55;;;20.40;58.00;;;;;;5071139;28;20104;-51
2023/08/10 09:36:29;;;;;;;6.18;1.77;;;20.60;57.20;;;;;;5036197;28;20076;-51
2023/08/10 09:38:59;;;;;;;2.53;0.95;;;20.90;56.70;;;;;;5044854;28;20020;-52
2023/08/10 09:41:26;;;;;;;4.47;1.52;;;20.90;57.80;;;;;;5050361;28;20107;-53
2023/08/10 09:43:52;;;;;;;4.38;1.40;;;20.40;56.70;;;;;;5051364;28;20488;-55
2023/08/10 09:46:19;;;;;;;6.90;1.58;;;19.90;56.30;;;;;;5050369;28;20090;-50
2023/08/10 09:48:48;;;;;;;4.05;1.30;;;19.50;58.60;;;;;;5052150;28;20085;-52
2023/08/10 09:51:14;;;;;;;5.57;1.55;;;19.70;61.70;;;;;;5042126;28;20030;-51
2023/08/10 09:53:41;;;;;;;8.20;1.58;;;20.20;63.20;;;;;;5050171;28;20037;-52
2023/08/10 09:56:08;;;;;;;4.80;1.17;;;20.50;61.50;;;;;;5043976;28;20517;-50
2023/08/10 09:58:41;;;;;;;7.97;1.75;;;20.40;57.80;;;;;;5044377;28;20119;-52
2023/08/10 10:01:08;;;;;;;7.28;1.77;;;20.40;58.50;;;;;;5046039;28;20363;-52
2023/08/10 10:03:35;;;;;;;5.90;1.20;;;20.50;60.70;;;;;;5032209;28;20460;-50
2023/08/10 10:06:02;;;;;;;3.33;1.50;;;20.80;58.80;;;;;;5046041;28;20044;-51
2023/08/10 10:08:35;;;;;;;3.78;1.08;;;21.10;60.30;;;;;;5040405;28;20503;-53
2023/08/10 10:11:09;;;;;;;4.60;1.13;;;21.40;57.20;;;;;;5050766;28;20126;-51
2023/08/10 10:13:36;;;;;;;5.32;1.35;;;21.30;56.10;;;;;;5033382;28;20025;-55
2023/08/10 10:16:07;;;;;;;7.25;1.70;;;21.10;57.00;;;;;;5050058;28;20361;-53
2023/08/10 10:18:35;;;;;;;4.10;1.25;;;20.60;56.20;;;;;;5050104;28;20033;-51
2023/08/10 10:21:02;;;;;;;3.13;0.98;;;20.60;57.00;;;;;;5021543;28;20029;-54
2023/08/10 10:23:30;;;;;;;4.50;1.30;;;20.70;57.10;;;;;;5050363;28;20037;-53
2023/08/10 10:26:03;;;;;;;4.53;1.10;;;21.00;57.20;;;;;;5036960;28;20116;-56
2023/08/10 10:28:31;;;;;;;3.75;1.00;;;21.50;60.10;;;;;;5044949;28;20371;-57
2023/08/10 10:31:10;;;;;;;3.60;1.77;;;21.90;55.60;;;;;;5041053;28;20048;-54
2023/08/10 10:33:40;;;;;;;6.40;1.17;;;21.90;55.10;;;;;;5045030;28;20112;-55
2023/08/10 10:36:14;;;;;;;2.80;0.90;;;21.70;52.60;;;;;;5055355;28;20504;-54
2023/08/10 10:38:46;;;;;;;6.40;1.40;;;21.90;56.70;;;;;;5072675;28;20033;-52
2023/08/10 10:41:15;;;;;;;3.42;1.00;;;22.20;56.90;;;;;;5066412;28;20094;-52
2023/08/10 10:43:46;;;;;;;5.18;1.20;;;22.60;56.40;;;;;;5073445;28;20029;-55
2023/08/10 10:46:52;;;;;;;4.40;1.33;;;22.90;55.50;;;;;;5069906;28;20038;-50
2023/08/10 10:49:23;;;;;;;4.00;1.10;;;23.00;49.80;;;;;;5073394;28;20108;-53
2023/08/10 10:51:59;;;;;;;5.10;1.27;;;22.90;52.70;;;;;;5070965;28;20590;-54
2023/08/10 10:54:31;;;;;;;5.15;1.23;;;23.20;52.40;;;;;;5063525;28;20024;-52
2023/08/10 10:56:59;;;;;;;5.95;1.30;;;23.20;54.10;;;;;;5061558;28;20025;-52
2023/08/10 10:59:29;;;;;;;3.78;0.85;;;22.80;50.20;;;;;;5071307;28;20054;-54
2023/08/10 11:01:55;;;;;;;6.63;0.90;;;22.10;51.00;;;;;;5068047;28;20021;-51
2023/08/10 11:04:22;;;;;;;4.22;1.00;;;22.00;54.60;;;;;;5072564;28;20099;-53
2023/08/10 11:06:49;;;;;;;7.65;1.05;;;22.20;52.60;;;;;;5060404;28;20047;-54
2023/08/10 11:09:16;;;;;;;4.53;0.90;;;22.20;53.40;;;;;;5052742;28;20032;-53
2023/08/10 11:11:48;;;;;;;4.43;1.13;;;21.50;52.80;;;;;;5069116;28;20125;-54
2023/08/10 11:14:15;;;;;;;5.03;1.02;;;21.30;53.50;;;;;;5064491;28;20404;-54
2023/08/10 11:16:43;;;;;;;7.88;1.10;;;21.60;59.00;;;;;;5072142;28;20060;-52
2023/08/10 11:19:13;;;;;;;3.17;1.02;;;22.00;56.50;;;;;;5068960;28;20121;-54
2023/08/10 11:21:51;;;;;;;3.47;1.10;;;22.30;53.10;;;;;;5072542;28;20058;-53
2023/08/10 11:24:17;;;;;;;3.55;1.10;;;22.20;53.60;;;;;;5071312;28;20039;-54
2023/08/10 11:26:46;;;;;;;3.70;0.90;;;22.20;56.50;;;;;;5066914;28;20020;-53
2023/08/10 11:29:15;;;;;;;3.10;1.10;;;22.60;57.30;;;;;;5072093;28;20155;-52
2023/08/10 11:31:44;;;;;;;2.58;1.08;;;22.50;54.80;;;;;;5039912;28;20028;-54
2023/08/10 11:34:21;;;;;;;4.85;1.10;;;22.50;54.20;;;;;;5064351;28;20051;-56
2023/08/10 11:36:48;;;;;;;5.60;1.38;;;22.60;56.60;;;;;;5066746;28;20075;-53
2023/08/10 11:39:15;;;;;;;4.55;1.08;;;22.60;53.70;;;;;;5069978;28;20037;-53
2023/08/10 11:41:43;;;;;;;4.30;1.05;;;22.80;54.40;;;;;;5049736;28;20047;-53
2023/08/10 11:44:20;;;;;;;5.63;1.55;;;22.60;52.80;;;;;;5055401;28;20024;-53
2023/08/10 11:46:49;;;;;;;3.80;1.13;;;22.80;55.30;;;;;;5053353;28;20045;-54
2023/08/10 11:49:16;;;;;;;7.22;1.08;;;23.00;53.00;;;;;;5061483;28;20036;-56
2023/08/10 11:51:43;;;;;;;2.70;0.98;;;22.70;51.80;;;;;;5063037;28;20035;-51
2023/08/10 11:54:11;;;;;;;3.88;0.88;;;22.30;55.40;;;;;;5064048;28;20111;-54
2023/08/10 11:56:52;;;;;;;7.38;1.13;;;22.40;52.60;;;;;;5049349;28;20032;-51
2023/08/10 11:59:19;;;;;;;4.50;0.90;;;22.50;53.50;;;;;;5051178;28;20032;-54
2023/08/10 12:01:53;;;;;;;3.53;0.80;;;22.80;53.40;;;;;;5065510;28;20104;-52
2023/08/10 12:04:20;;;;;;;4.90;1.23;;;23.10;52.40;;;;;;5062309;28;20587;-56
2023/08/10 12:06:47;;;;;;;5.00;1.50;;;22.60;51.00;;;;;;5063692;28;20048;-51
2023/08/10 12:09:14;;;;;;;4.47;0.93;;;22.70;52.40;;;;;;5063488;28;20032;-52
2023/08/10 12:11:46;;;;;;;2.60;0.77;;;22.60;55.30;;;;;;5066941;28;20012;-54
2023/08/10 12:14:15;;;;;;;4.88;1.20;;;22.70;54.90;;;;;;5065485;28;20111;-53
2023/08/10 12:16:44;;;;;;;6.07;1.13;;;22.60;55.00;;;;;;5046774;28;20033;-53
2023/08/10 12:19:10;;;;;;;3.72;1.10;;;22.00;55.90;;;;;;5064348;28;20033;-52
2023/08/10 12:21:37;;;;;;;4.18;1.13;;;21.80;55.70;;;;;;5062521;28;20109;-55
2023/08/10 12:24:04;;;;;;;6.53;1.10;;;21.90;60.70;;;;;;5065740;28;20454;-52
2023/08/10 12:26:30;;;;;;;9.27;1.58;;;22.10;60.20;;;;;;5048232;28;20135;-51
2023/08/10 12:28:57;;;;;;;3.70;1.33;;;22.00;56.70;;;;;;5055432;28;20158;-52
2023/08/10 12:31:25;;;;;;;4.18;1.13;;;22.20;59.00;;;;;;5046001;28;20576;-51
2023/08/10 12:33:56;;;;;;;2.22;1.05;;;22.30;57.80;;;;;;5064467;28;20409;-55
2023/08/10 12:36:22;;;;;;;5.50;1.40;;;22.20;55.30;;;;;;5069674;28;20535;-55
2023/08/10 12:38:49;;;;;;;3.53;0.93;;;21.90;56.70;;;;;;5057413;28;20059;-53
2023/08/10 12:41:15;;;;;;;3.20;1.00;;;21.70;58.40;;;;;;5064441;28;20040;-51
2023/08/10 12:43:45;;;;;;;6.53;1.63;;;21.50;59.50;;;;;;5057711;28;20024;-54
2023/08/10 12:46:12;;;;;;;8.00;1.70;;;21.40;61.30;;;;;;5063948;28;20033;-56
2023/08/10 12:48:41;;;;;;;6.70;1.40;;;21.50;61.60;;;;;;5070995;28;20100;-53
2023/08/10 12:51:08;;;;;;;5.28;1.25;;;21.50;61.00;;;;;;5062552;28;20052;-52
2023/08/10 12:53:36;;;;;;;5.30;1.63;;;21.50;61.10;;;;;;5059670;28;20485;-55